sensor_id;sensor_type;location;lat;lon;timestamp;pressure;altitude;pressure_sealevel;temperature;humidity
51359;BME280;37448;51.588;7.248;2022-08-19T00:00:54;100569.97;;;19.16;90.64
51359;BME280;37448;51.588;7.248;2022-08-19T00:03:24;100574.03;;;19.11;90.68
51359;BME280;37448;51.588;7.248;2022-08-19T00:05:55;100579.28;;;19.06;90.20
51359;BME280;37448;51.588;7.248;2022-08-19T00:08:25;100573.31;;;19.07;89.88
51359;BME280;37448;51.588;7.248;2022-08-19T00:10:55;100585.22;;;19.08;89.37
51359;BME280;37448;51.588;7.248;2022-08-19T00:13:26;100574.88;;;19.08;89.02
51359;BME280;37448;51.588;7.248;2022-08-19T00:15:58;100589.22;;;19.07;88.69
51359;BME280;37448;51.588;7.248;2022-08-19T00:18:30;100582.25;;;18.95;89.99
51359;BME280;37448;51.588;7.248;2022-08-19T00:21:01;100581.06;;;18.96;89.71
51359;BME280;37448;51.588;7.248;2022-08-19T00:23:31;100585.59;;;18.87;91.62
51359;BME280;37448;51.588;7.248;2022-08-19T00:26:05;100573.25;;;18.88;91.10
51359;BME280;37448;51.588;7.248;2022-08-19T00:28:35;100573.25;;;18.88;90.71
51359;BME280;37448;51.588;7.248;2022-08-19T00:31:08;100578.44;;;18.86;90.37
51359;BME280;37448;51.588;7.248;2022-08-19T00:33:38;100576.81;;;18.88;89.89
51359;BME280;37448;51.588;7.248;2022-08-19T00:36:10;100574.44;;;18.87;90.80
51359;BME280;37448;51.588;7.248;2022-08-19T00:38:40;100576.50;;;18.83;90.71
51359;BME280;37448;51.588;7.248;2022-08-19T00:41:15;100569.72;;;18.84;90.64
51359;BME280;37448;51.588;7.248;2022-08-19T00:43:59;100571.03;;;18.76;91.42
51359;BME280;37448;51.588;7.248;2022-08-19T00:46:30;100571.88;;;18.73;90.92
51359;BME280;37448;51.588;7.248;2022-08-19T00:49:06;100568.31;;;18.72;90.61
51359;BME280;37448;51.588;7.248;2022-08-19T00:51:41;100570.69;;;18.74;90.69
51359;BME280;37448;51.588;7.248;2022-08-19T00:54:12;100571.03;;;18.76;90.95
51359;BME280;37448;51.588;7.248;2022-08-19T00:56:43;100570.69;;;18.74;90.91
51359;BME280;37448;51.588;7.248;2022-08-19T00:59:15;100576.72;;;18.68;90.52
51359;BME280;37448;51.588;7.248;2022-08-19T01:01:46;100568.97;;;18.56;91.39
51359;BME280;37448;51.588;7.248;2022-08-19T01:04:17;100560.75;;;18.46;91.74
51359;BME280;37448;51.588;7.248;2022-08-19T01:06:47;100566.41;;;18.39;91.84
51359;BME280;37448;51.588;7.248;2022-08-19T01:09:17;100562.53;;;18.33;91.30
51359;BME280;37448;51.588;7.248;2022-08-19T01:11:48;100554.72;;;18.20;92.42
51359;BME280;37448;51.588;7.248;2022-08-19T01:14:19;100551.59;;;18.18;92.23
51359;BME280;37448;51.588;7.248;2022-08-19T01:16:49;100544.38;;;18.21;92.89
51359;BME280;37448;51.588;7.248;2022-08-19T01:19:29;100549.53;;;18.22;93.18
51359;BME280;37448;51.588;7.248;2022-08-19T01:22:02;100560.00;;;18.15;92.74
51359;BME280;37448;51.588;7.248;2022-08-19T01:24:33;100561.06;;;18.21;92.47
51359;BME280;37448;51.588;7.248;2022-08-19T01:27:05;100571.47;;;18.17;92.77
51359;BME280;37448;51.588;7.248;2022-08-19T01:29:39;100565.97;;;18.13;93.39
51359;BME280;37448;51.588;7.248;2022-08-19T01:32:12;100568.00;;;18.09;94.21
51359;BME280;37448;51.588;7.248;2022-08-19T01:34:45;100566.84;;;18.07;93.83
51359;BME280;37448;51.588;7.248;2022-08-19T01:37:17;100568.41;;;18.08;94.14
51359;BME280;37448;51.588;7.248;2022-08-19T01:39:47;100567.22;;;18.09;95.04
51359;BME280;37448;51.588;7.248;2022-08-19T01:42:18;100567.22;;;18.09;94.77
51359;BME280;37448;51.588;7.248;2022-08-19T01:44:49;100556.09;;;18.09;94.75
51359;BME280;37448;51.588;7.248;2022-08-19T01:47:20;100559.66;;;18.09;95.36
51359;BME280;37448;51.588;7.248;2022-08-19T01:49:50;100565.38;;;17.99;96.13
51359;BME280;37448;51.588;7.248;2022-08-19T01:52:20;100567.31;;;18.02;95.41
51359;BME280;37448;51.588;7.248;2022-08-19T01:54:51;100566.84;;;18.07;95.02
51359;BME280;37448;51.588;7.248;2022-08-19T01:57:21;100554.16;;;18.06;96.00
51359;BME280;37448;51.588;7.248;2022-08-19T01:59:51;100558.97;;;18.02;97.17
51359;BME280;37448;51.588;7.248;2022-08-19T02:02:22;100562.91;;;18.04;96.09
51359;BME280;37448;51.588;7.248;2022-08-19T02:04:53;100567.31;;;18.02;96.04
51359;BME280;37448;51.588;7.248;2022-08-19T02:07:23;100560.97;;;18.01;95.91
51359;BME280;37448;51.588;7.248;2022-08-19T02:09:54;100556.59;;;18.00;95.93
51359;BME280;37448;51.588;7.248;2022-08-19T02:12:25;100549.44;;;17.99;96.41
51359;BME280;37448;51.588;7.248;2022-08-19T02:14:55;100553.41;;;18.02;95.80
51359;BME280;37448;51.588;7.248;2022-08-19T02:17:25;100549.84;;;18.01;96.15
51359;BME280;37448;51.588;7.248;2022-08-19T02:19:56;100545.53;;;17.97;95.97
51359;BME280;37448;51.588;7.248;2022-08-19T02:22:26;100538.38;;;17.96;95.90
51359;BME280;37448;51.588;7.248;2022-08-19T02:24:57;100535.53;;;17.99;96.43
51359;BME280;37448;51.588;7.248;2022-08-19T02:27:27;100532.75;;;17.99;95.22
51359;BME280;37448;51.588;7.248;2022-08-19T02:29:57;100547.84;;;18.02;95.38
51359;BME280;37448;51.588;7.248;2022-08-19T02:32:28;100542.28;;;18.02;96.43
51359;BME280;37448;51.588;7.248;2022-08-19T02:35:00;100554.25;;;17.99;97.66
51359;BME280;37448;51.588;7.248;2022-08-19T02:37:31;100562.22;;;17.97;98.28
51359;BME280;37448;51.588;7.248;2022-08-19T02:40:20;100564.63;;;17.95;98.06
51359;BME280;37448;51.588;7.248;2022-08-19T02:42:51;100555.91;;;17.93;97.80
51359;BME280;37448;51.588;7.248;2022-08-19T02:45:21;100560.25;;;17.94;97.13
51359;BME280;37448;51.588;7.248;2022-08-19T02:47:52;100551.88;;;17.97;97.30
51359;BME280;37448;51.588;7.248;2022-08-19T02:50:23;100556.28;;;17.95;98.27
51359;BME280;37448;51.588;7.248;2022-08-19T02:52:53;100547.50;;;17.96;96.70
51359;BME280;37448;51.588;7.248;2022-08-19T02:55:23;100557.44;;;17.97;96.80
51359;BME280;37448;51.588;7.248;2022-08-19T02:57:54;100547.09;;;17.98;96.95
51359;BME280;37448;51.588;7.248;2022-08-19T03:00:24;100547.09;;;17.98;97.53
51359;BME280;37448;51.588;7.248;2022-08-19T03:02:55;100555.06;;;17.96;97.45
51359;BME280;37448;51.588;7.248;2022-08-19T03:05:26;100550.28;;;17.96;97.76
51359;BME280;37448;51.588;7.248;2022-08-19T03:07:57;100547.94;;;17.95;97.62
51359;BME280;37448;51.588;7.248;2022-08-19T03:10:27;100542.38;;;17.95;97.74
51359;BME280;37448;51.588;7.248;2022-08-19T03:12:58;100541.66;;;17.91;98.53
51359;BME280;37448;51.588;7.248;2022-08-19T03:15:28;100555.53;;;17.91;97.34
51359;BME280;37448;51.588;7.248;2022-08-19T03:17:58;100552.00;;;17.87;97.72
51359;BME280;37448;51.588;7.248;2022-08-19T03:20:29;100556.00;;;17.86;96.99
51359;BME280;37448;51.588;7.248;2022-08-19T03:22:59;100554.47;;;17.81;97.48
51359;BME280;37448;51.588;7.248;2022-08-19T03:25:29;100560.88;;;17.74;96.75
51359;BME280;37448;51.588;7.248;2022-08-19T03:28:00;100555.03;;;17.65;97.33
51359;BME280;37448;51.588;7.248;2022-08-19T03:30:30;100565.84;;;17.60;97.73
51359;BME280;37448;51.588;7.248;2022-08-19T03:33:01;100553.59;;;17.50;97.37
51359;BME280;37448;51.588;7.248;2022-08-19T03:35:32;100554.88;;;17.42;98.36
51359;BME280;37448;51.588;7.248;2022-08-19T03:38:04;100548.56;;;17.38;98.05
51359;BME280;37448;51.588;7.248;2022-08-19T03:40:36;100550.59;;;17.34;100.00
51359;BME280;37448;51.588;7.248;2022-08-19T03:43:06;100554.22;;;17.31;100.00
51359;BME280;37448;51.588;7.248;2022-08-19T03:45:37;100554.16;;;17.34;99.92
51359;BME280;37448;51.588;7.248;2022-08-19T03:48:07;100554.22;;;17.31;100.00
51359;BME280;37448;51.588;7.248;2022-08-19T03:50:39;100551.78;;;17.33;98.51
51359;BME280;37448;51.588;7.248;2022-08-19T03:53:10;100558.97;;;17.30;98.29
51359;BME280;37448;51.588;7.248;2022-08-19T03:55:40;100546.31;;;17.26;98.02
51359;BME280;37448;51.588;7.248;2022-08-19T03:58:11;100560.25;;;17.19;98.36
51359;BME280;37448;51.588;7.248;2022-08-19T04:00:42;100548.88;;;17.10;99.80
51359;BME280;37448;51.588;7.248;2022-08-19T04:03:13;100559.97;;;17.06;99.50
51359;BME280;37448;51.588;7.248;2022-08-19T04:05:43;100556.84;;;17.04;99.11
51359;BME280;37448;51.588;7.248;2022-08-19T04:08:15;100562.81;;;16.99;100.00
51359;BME280;37448;51.588;7.248;2022-08-19T04:10:49;100563.25;;;16.94;100.00
51359;BME280;37448;51.588;7.248;2022-08-19T04:13:19;100569.59;;;16.95;100.00
51359;BME280;37448;51.588;7.248;2022-08-19T04:15:50;100565.25;;;16.94;100.00
51359;BME280;37448;51.588;7.248;2022-08-19T04:18:20;100564.88;;;16.92;100.00
51359;BME280;37448;51.588;7.248;2022-08-19T04:20:51;100566.47;;;16.89;100.00
51359;BME280;37448;51.588;7.248;2022-08-19T04:23:22;100575.97;;;16.92;100.00
51359;BME280;37448;51.588;7.248;2022-08-19T04:25:52;100578.31;;;16.97;100.00
51359;BME280;37448;51.588;7.248;2022-08-19T04:28:25;100574.31;;;17.01;100.00
51359;BME280;37448;51.588;7.248;2022-08-19T04:30:56;100573.09;;;17.06;100.00
51359;BME280;37448;51.588;7.248;2022-08-19T04:33:26;100564.69;;;17.13;100.00
51359;BME280;37448;51.588;7.248;2022-08-19T04:35:58;100560.66;;;17.21;100.00
51359;BME280;37448;51.588;7.248;2022-08-19T04:38:30;100563.34;;;17.28;100.00
51359;BME280;37448;51.588;7.248;2022-08-19T04:41:02;100565.25;;;17.38;100.00
51359;BME280;37448;51.588;7.248;2022-08-19T04:43:51;100576.28;;;17.45;100.00
51359;BME280;37448;51.588;7.248;2022-08-19T04:46:22;100568.31;;;17.47;100.00
51359;BME280;37448;51.588;7.248;2022-08-19T04:48:52;100574.63;;;17.51;100.00
51359;BME280;37448;51.588;7.248;2022-08-19T04:51:23;100587.28;;;17.56;100.00
51359;BME280;37448;51.588;7.248;2022-08-19T04:53:53;100582.53;;;17.56;100.00
51359;BME280;37448;51.588;7.248;2022-08-19T04:56:24;100580.94;;;17.59;100.00
51359;BME280;37448;51.588;7.248;2022-08-19T04:58:57;100583.66;;;17.62;100.00
51359;BME280;37448;51.588;7.248;2022-08-19T05:01:28;100588.78;;;17.67;100.00
51359;BME280;37448;51.588;7.248;2022-08-19T05:04:00;100592.34;;;17.68;100.00
51359;BME280;37448;51.588;7.248;2022-08-19T05:06:32;100592.34;;;17.68;100.00
51359;BME280;37448;51.588;7.248;2022-08-19T05:09:04;100595.88;;;17.72;100.00
51359;BME280;37448;51.588;7.248;2022-08-19T05:11:36;100599.81;;;17.74;100.00
51359;BME280;37448;51.588;7.248;2022-08-19T05:14:10;100601.28;;;17.83;100.00
51359;BME280;37448;51.588;7.248;2022-08-19T05:16:42;100602.19;;;17.76;100.00
51359;BME280;37448;51.588;7.248;2022-08-19T05:19:13;100600.53;;;17.78;99.69
51359;BME280;37448;51.588;7.248;2022-08-19T05:22:02;100605.66;;;17.84;99.29
51359;BME280;37448;51.588;7.248;2022-08-19T05:24:51;100602.38;;;17.92;98.12
51359;BME280;37448;51.588;7.248;2022-08-19T05:27:22;100601.22;;;17.90;98.13
51359;BME280;37448;51.588;7.248;2022-08-19T05:29:52;100605.94;;;17.93;98.66
51359;BME280;37448;51.588;7.248;2022-08-19T05:32:22;100599.94;;;17.98;98.22
51359;BME280;37448;51.588;7.248;2022-08-19T05:34:53;100598.22;;;18.07;97.95
51359;BME280;37448;51.588;7.248;2022-08-19T05:37:23;100602.13;;;18.13;98.87
51359;BME280;37448;51.588;7.248;2022-08-19T05:39:56;100604.34;;;18.25;100.00
51359;BME280;37448;51.588;7.248;2022-08-19T05:42:27;100602.91;;;18.44;98.63
51359;BME280;37448;51.588;7.248;2022-08-19T05:44:57;100604.22;;;18.63;97.50
51359;BME280;37448;51.588;7.248;2022-08-19T05:47:28;100605.97;;;18.80;98.14
51359;BME280;37448;51.588;7.248;2022-08-19T05:49:58;100602.91;;;18.98;96.55
51359;BME280;37448;51.588;7.248;2022-08-19T05:52:28;100602.91;;;19.21;95.66
51359;BME280;37448;51.588;7.248;2022-08-19T05:54:59;100606.44;;;19.48;94.01
51359;BME280;37448;51.588;7.248;2022-08-19T05:57:29;100607.97;;;19.73;93.66
51359;BME280;37448;51.588;7.248;2022-08-19T06:00:00;100612.63;;;19.99;92.72
51359;BME280;37448;51.588;7.248;2022-08-19T06:02:32;100607.88;;;20.16;91.70
51359;BME280;37448;51.588;7.248;2022-08-19T06:05:04;100594.28;;;20.37;90.84
51359;BME280;37448;51.588;7.248;2022-08-19T06:07:38;100603.53;;;20.70;88.92
51359;BME280;37448;51.588;7.248;2022-08-19T06:10:10;100610.53;;;20.78;87.99
51359;BME280;37448;51.588;7.248;2022-08-19T06:12:41;100603.13;;;21.04;87.62
51359;BME280;37448;51.588;7.248;2022-08-19T06:15:13;100600.91;;;21.12;86.12
51359;BME280;37448;51.588;7.248;2022-08-19T06:17:43;100601.97;;;21.18;85.75
51359;BME280;37448;51.588;7.248;2022-08-19T06:20:16;100609.88;;;21.52;84.08
51359;BME280;37448;51.588;7.248;2022-08-19T06:22:48;100610.38;;;21.92;82.35
51359;BME280;37448;51.588;7.248;2022-08-19T06:25:21;100616.41;;;22.73;78.26
51359;BME280;37448;51.588;7.248;2022-08-19T06:27:51;100620.19;;;23.04;78.50
51359;BME280;37448;51.588;7.248;2022-08-19T06:30:23;100619.97;;;23.11;78.41
51359;BME280;37448;51.588;7.248;2022-08-19T06:32:53;100627.53;;;23.49;74.21
51359;BME280;37448;51.588;7.248;2022-08-19T06:35:24;100628.09;;;23.44;76.15
51359;BME280;37448;51.588;7.248;2022-08-19T06:37:55;100630.50;;;23.67;75.75
51359;BME280;37448;51.588;7.248;2022-08-19T06:40:25;100629.28;;;24.33;73.99
51359;BME280;37448;51.588;7.248;2022-08-19T06:42:57;100625.81;;;24.91;71.28
51359;BME280;37448;51.588;7.248;2022-08-19T06:45:29;100620.34;;;25.45;67.84
51359;BME280;37448;51.588;7.248;2022-08-19T06:48:00;100615.94;;;26.17;65.54
51359;BME280;37448;51.588;7.248;2022-08-19T06:50:30;100622.84;;;26.34;63.88
51359;BME280;37448;51.588;7.248;2022-08-19T06:53:01;100635.09;;;27.06;59.66
51359;BME280;37448;51.588;7.248;2022-08-19T06:55:32;100640.03;;;26.18;62.23
51359;BME280;37448;51.588;7.248;2022-08-19T06:58:04;100628.00;;;26.18;61.89
51359;BME280;37448;51.588;7.248;2022-08-19T07:00:34;100624.69;;;26.89;60.59
51359;BME280;37448;51.588;7.248;2022-08-19T07:03:05;100636.66;;;27.07;59.89
51359;BME280;37448;51.588;7.248;2022-08-19T07:05:40;100634.53;;;27.50;58.63
51359;BME280;37448;51.588;7.248;2022-08-19T07:08:10;100641.47;;;27.40;57.25
51359;BME280;37448;51.588;7.248;2022-08-19T07:10:45;100631.78;;;27.08;57.83
51359;BME280;37448;51.588;7.248;2022-08-19T07:13:16;100641.91;;;26.91;58.87
51359;BME280;37448;51.588;7.248;2022-08-19T07:15:46;100642.81;;;26.46;60.59
51359;BME280;37448;51.588;7.248;2022-08-19T07:18:20;100636.31;;;26.12;61.31
51359;BME280;37448;51.588;7.248;2022-08-19T07:21:02;100635.16;;;25.28;63.04
51359;BME280;37448;51.588;7.248;2022-08-19T07:23:33;100635.81;;;25.50;63.32
51359;BME280;37448;51.588;7.248;2022-08-19T07:26:13;100643.06;;;25.78;62.61
51359;BME280;37448;51.588;7.248;2022-08-19T07:28:44;100644.53;;;25.34;64.12
51359;BME280;37448;51.588;7.248;2022-08-19T07:31:20;100638.00;;;25.37;63.18
51359;BME280;37448;51.588;7.248;2022-08-19T07:33:52;100645.97;;;24.89;65.03
51359;BME280;37448;51.588;7.248;2022-08-19T07:36:27;100641.59;;;24.88;65.25
51359;BME280;37448;51.588;7.248;2022-08-19T07:39:07;100652.19;;;24.84;64.79
51359;BME280;37448;51.588;7.248;2022-08-19T07:41:38;100651.00;;;24.64;65.74
51359;BME280;37448;51.588;7.248;2022-08-19T07:44:10;100661.13;;;24.61;66.19
51359;BME280;37448;51.588;7.248;2022-08-19T07:46:44;100663.19;;;24.70;65.96
51359;BME280;37448;51.588;7.248;2022-08-19T07:49:15;100658.81;;;24.69;66.61
51359;BME280;37448;51.588;7.248;2022-08-19T07:51:52;100660.34;;;24.91;66.33
51359;BME280;37448;51.588;7.248;2022-08-19T07:54:24;100666.56;;;25.26;64.99
51359;BME280;37448;51.588;7.248;2022-08-19T07:56:56;100666.78;;;25.50;64.49
51359;BME280;37448;51.588;7.248;2022-08-19T07:59:27;100672.91;;;25.94;63.27
51359;BME280;37448;51.588;7.248;2022-08-19T08:01:58;100677.25;;;26.50;60.54
51359;BME280;37448;51.588;7.248;2022-08-19T08:04:32;100683.69;;;27.01;58.33
51359;BME280;37448;51.588;7.248;2022-08-19T08:07:21;100682.72;;;27.37;58.54
51359;BME280;37448;51.588;7.248;2022-08-19T08:10:10;100687.41;;;27.40;56.88
51359;BME280;37448;51.588;7.248;2022-08-19T08:12:40;100693.50;;;27.15;57.23
51359;BME280;37448;51.588;7.248;2022-08-19T08:15:13;100696.59;;;27.26;56.82
51359;BME280;37448;51.588;7.248;2022-08-19T08:17:46;100695.13;;;27.07;57.82
51359;BME280;37448;51.588;7.248;2022-08-19T08:20:18;100697.56;;;27.23;57.29
51359;BME280;37448;51.588;7.248;2022-08-19T08:22:49;100704.81;;;27.48;57.27
51359;BME280;37448;51.588;7.248;2022-08-19T08:25:38;100702.31;;;28.27;55.58
51359;BME280;37448;51.588;7.248;2022-08-19T08:28:09;100706.28;;;28.73;54.25
51359;BME280;37448;51.588;7.248;2022-08-19T08:30:40;100716.16;;;29.27;52.38
51359;BME280;37448;51.588;7.248;2022-08-19T08:33:13;100715.22;;;29.01;51.90
51359;BME280;37448;51.588;7.248;2022-08-19T08:35:43;100715.38;;;29.27;50.64
51359;BME280;37448;51.588;7.248;2022-08-19T08:38:15;100707.66;;;29.27;51.12
51359;BME280;37448;51.588;7.248;2022-08-19T08:40:50;100701.31;;;29.32;50.85
51359;BME280;37448;51.588;7.248;2022-08-19T08:43:35;100698.25;;;30.11;50.44
51359;BME280;37448;51.588;7.248;2022-08-19T08:46:09;100700.47;;;30.27;48.18
51359;BME280;37448;51.588;7.248;2022-08-19T08:48:56;100700.56;;;29.72;48.34
51359;BME280;37448;51.588;7.248;2022-08-19T08:51:34;100700.44;;;29.61;48.05
51359;BME280;37448;51.588;7.248;2022-08-19T08:54:08;100701.97;;;30.23;46.33
51359;BME280;37448;51.588;7.248;2022-08-19T08:56:44;100702.91;;;30.14;46.02
51359;BME280;37448;51.588;7.248;2022-08-19T08:59:31;100705.69;;;30.34;46.52
51359;BME280;37448;51.588;7.248;2022-08-19T09:02:04;100704.22;;;30.96;45.51
51359;BME280;37448;51.588;7.248;2022-08-19T09:04:35;100698.00;;;31.29;44.15
51359;BME280;37448;51.588;7.248;2022-08-19T09:10:17;100696.28;;;31.00;43.69
51359;BME280;37448;51.588;7.248;2022-08-19T09:13:03;100694.31;;;30.86;44.05
51359;BME280;37448;51.588;7.248;2022-08-19T09:15:42;100690.75;;;30.08;44.14
51359;BME280;37448;51.588;7.248;2022-08-19T09:18:14;100682.72;;;30.07;44.53
51359;BME280;37448;51.588;7.248;2022-08-19T09:20:46;100691.69;;;30.51;43.60
51359;BME280;37448;51.588;7.248;2022-08-19T09:23:19;100685.84;;;30.34;43.19
51359;BME280;37448;51.588;7.248;2022-08-19T09:25:51;100690.22;;;30.87;42.80
51359;BME280;37448;51.588;7.248;2022-08-19T09:28:21;100693.84;;;31.24;41.93
51359;BME280;37448;51.588;7.248;2022-08-19T09:30:52;100692.59;;;30.63;43.42
51359;BME280;37448;51.588;7.248;2022-08-19T09:33:22;100682.44;;;30.30;43.50
51359;BME280;37448;51.588;7.248;2022-08-19T09:36:06;100694.25;;;29.42;44.75
51359;BME280;37448;51.588;7.248;2022-08-19T09:38:38;100684.06;;;28.81;47.21
51359;BME280;37448;51.588;7.248;2022-08-19T09:41:13;100690.84;;;28.59;48.25
51359;BME280;37448;51.588;7.248;2022-08-19T09:43:46;100689.88;;;28.48;48.23
51359;BME280;37448;51.588;7.248;2022-08-19T09:46:18;100691.06;;;28.71;47.85
51359;BME280;37448;51.588;7.248;2022-08-19T09:48:51;100691.69;;;27.83;49.56
51359;BME280;37448;51.588;7.248;2022-08-19T09:51:24;100690.50;;;27.51;50.64
51359;BME280;37448;51.588;7.248;2022-08-19T09:54:00;100687.16;;;26.96;52.21
51359;BME280;37448;51.588;7.248;2022-08-19T09:56:32;100680.94;;;26.74;53.36
51359;BME280;37448;51.588;7.248;2022-08-19T09:59:03;100689.03;;;27.32;52.84
51359;BME280;37448;51.588;7.248;2022-08-19T10:01:36;100677.78;;;27.94;50.80
51359;BME280;37448;51.588;7.248;2022-08-19T10:04:07;100692.78;;;28.24;49.02
51359;BME280;37448;51.588;7.248;2022-08-19T10:06:40;100683.75;;;27.96;49.93
51359;BME280;37448;51.588;7.248;2022-08-19T10:09:11;100679.59;;;27.35;52.09
51359;BME280;37448;51.588;7.248;2022-08-19T10:11:44;100684.03;;;26.43;53.35
51359;BME280;37448;51.588;7.248;2022-08-19T10:14:19;100681.81;;;26.11;54.00
51359;BME280;37448;51.588;7.248;2022-08-19T10:16:52;100679.19;;;26.07;54.80
51359;BME280;37448;51.588;7.248;2022-08-19T10:19:22;100675.56;;;25.98;55.25
51359;BME280;37448;51.588;7.248;2022-08-19T10:21:53;100676.34;;;25.89;55.51
51359;BME280;37448;51.588;7.248;2022-08-19T10:24:24;100674.47;;;26.31;54.81
51359;BME280;37448;51.588;7.248;2022-08-19T10:26:56;100680.91;;;27.25;52.75
51359;BME280;37448;51.588;7.248;2022-08-19T10:29:27;100672.06;;;27.41;52.63
51359;BME280;37448;51.588;7.248;2022-08-19T10:32:01;100677.59;;;27.03;53.38
51359;BME280;37448;51.588;7.248;2022-08-19T10:34:32;100678.44;;;26.85;52.15
51359;BME280;37448;51.588;7.248;2022-08-19T10:37:04;100668.84;;;26.92;50.79
51359;BME280;37448;51.588;7.248;2022-08-19T10:39:35;100669.88;;;26.52;51.20
51359;BME280;37448;51.588;7.248;2022-08-19T10:42:07;100669.53;;;26.77;49.72
51359;BME280;37448;51.588;7.248;2022-08-19T10:44:37;100673.25;;;26.83;50.79
51359;BME280;37448;51.588;7.248;2022-08-19T10:47:08;100668.78;;;27.66;48.73
51359;BME280;37448;51.588;7.248;2022-08-19T10:49:38;100670.25;;;28.15;47.26
51359;BME280;37448;51.588;7.248;2022-08-19T10:52:29;100677.97;;;28.58;45.93
51359;BME280;37448;51.588;7.248;2022-08-19T10:55:06;100672.09;;;28.18;46.84
51359;BME280;37448;51.588;7.248;2022-08-19T10:57:55;100670.88;;;28.34;45.68
51359;BME280;37448;51.588;7.248;2022-08-19T11:00:27;100668.44;;;28.41;45.49
51359;BME280;37448;51.588;7.248;2022-08-19T11:02:57;100667.75;;;28.17;44.97
51359;BME280;37448;51.588;7.248;2022-08-19T11:05:27;100668.09;;;28.69;44.94
51359;BME280;37448;51.588;7.248;2022-08-19T11:07:58;100668.91;;;29.33;43.46
51359;BME280;37448;51.588;7.248;2022-08-19T11:10:28;100666.84;;;30.15;42.54
51359;BME280;37448;51.588;7.248;2022-08-19T11:12:58;100671.06;;;30.25;42.21
51359;BME280;37448;51.588;7.248;2022-08-19T11:15:30;100666.63;;;31.01;37.08
51359;BME280;37448;51.588;7.248;2022-08-19T11:18:02;100670.59;;;31.20;36.83
51359;BME280;37448;51.588;7.248;2022-08-19T11:20:32;100671.09;;;31.56;35.99
51359;BME280;37448;51.588;7.248;2022-08-19T11:23:03;100677.63;;;31.31;37.15
51359;BME280;37448;51.588;7.248;2022-08-19T11:25:34;100670.75;;;30.74;37.37
51359;BME280;37448;51.588;7.248;2022-08-19T11:28:05;100673.91;;;31.13;37.99
51359;BME280;37448;51.588;7.248;2022-08-19T11:30:37;100673.94;;;31.56;37.66
51359;BME280;37448;51.588;7.248;2022-08-19T11:33:07;100682.97;;;31.60;37.03
51359;BME280;37448;51.588;7.248;2022-08-19T11:35:39;100671.47;;;31.38;37.49
51359;BME280;37448;51.588;7.248;2022-08-19T11:38:11;100666.97;;;30.83;38.32
51359;BME280;37448;51.588;7.248;2022-08-19T11:40:41;100662.84;;;30.84;37.08
51359;BME280;37448;51.588;7.248;2022-08-19T11:43:12;100662.75;;;30.73;37.64
51359;BME280;37448;51.588;7.248;2022-08-19T11:45:42;100659.06;;;30.35;39.29
51359;BME280;37448;51.588;7.248;2022-08-19T11:48:13;100656.84;;;30.45;38.08
51359;BME280;37448;51.588;7.248;2022-08-19T11:50:43;100661.06;;;30.87;37.00
51359;BME280;37448;51.588;7.248;2022-08-19T11:53:13;100665.44;;;31.19;35.90
51359;BME280;37448;51.588;7.248;2022-08-19T11:55:44;100663.84;;;31.12;35.61
51359;BME280;37448;51.588;7.248;2022-08-19T11:58:16;100662.91;;;30.95;37.24
51359;BME280;37448;51.588;7.248;2022-08-19T12:00:47;100650.19;;;31.16;36.54
51359;BME280;37448;51.588;7.248;2022-08-19T12:03:17;100646.59;;;31.21;36.38
51359;BME280;37448;51.588;7.248;2022-08-19T12:05:49;100651.63;;;30.64;38.37
51359;BME280;37448;51.588;7.248;2022-08-19T12:08:20;100660.56;;;30.57;37.78
51359;BME280;37448;51.588;7.248;2022-08-19T12:10:50;100650.06;;;29.71;38.74
51359;BME280;37448;51.588;7.248;2022-08-19T12:13:21;100647.66;;;29.23;39.81
51359;BME280;37448;51.588;7.248;2022-08-19T12:15:51;100651.06;;;28.63;41.50
51359;BME280;37448;51.588;7.248;2022-08-19T12:18:23;100640.81;;;28.66;42.06
51359;BME280;37448;51.588;7.248;2022-08-19T12:20:54;100638.00;;;28.66;42.26
51359;BME280;37448;51.588;7.248;2022-08-19T12:23:25;100632.34;;;28.66;41.87
51359;BME280;37448;51.588;7.248;2022-08-19T12:25:55;100635.59;;;29.08;40.60
51359;BME280;37448;51.588;7.248;2022-08-19T12:28:27;100636.94;;;29.47;40.26
51359;BME280;37448;51.588;7.248;2022-08-19T12:30:57;100631.97;;;30.09;38.22
51359;BME280;37448;51.588;7.248;2022-08-19T12:33:28;100630.38;;;30.02;37.85
51359;BME280;37448;51.588;7.248;2022-08-19T12:36:06;100633.66;;;30.21;35.93
51359;BME280;37448;51.588;7.248;2022-08-19T12:38:38;100642.72;;;30.51;34.48
51359;BME280;37448;51.588;7.248;2022-08-19T12:41:11;100636.38;;;30.61;33.27
51359;BME280;37448;51.588;7.248;2022-08-19T12:43:42;100632.03;;;30.14;34.75
51359;BME280;37448;51.588;7.248;2022-08-19T12:46:13;100634.63;;;29.92;36.62
51359;BME280;37448;51.588;7.248;2022-08-19T12:48:44;100633.03;;;30.63;34.67
51359;BME280;37448;51.588;7.248;2022-08-19T12:51:17;100638.34;;;30.50;35.45
51359;BME280;37448;51.588;7.248;2022-08-19T12:53:49;100631.22;;;30.97;35.03
51359;BME280;37448;51.588;7.248;2022-08-19T12:56:19;100637.91;;;30.99;35.02
51359;BME280;37448;51.588;7.248;2022-08-19T12:58:50;100636.41;;;30.67;35.95
51359;BME280;37448;51.588;7.248;2022-08-19T13:01:20;100629.28;;;31.19;35.06
51359;BME280;37448;51.588;7.248;2022-08-19T13:03:51;100625.84;;;30.67;36.67
51359;BME280;37448;51.588;7.248;2022-08-19T13:06:22;100630.50;;;31.02;35.63
51359;BME280;37448;51.588;7.248;2022-08-19T13:08:54;100623.44;;;30.60;36.12
51359;BME280;37448;51.588;7.248;2022-08-19T13:11:24;100623.16;;;31.26;34.73
51359;BME280;37448;51.588;7.248;2022-08-19T13:13:55;100618.00;;;31.36;34.50
51359;BME280;37448;51.588;7.248;2022-08-19T13:16:25;100609.69;;;30.79;36.00